Friedman Memorial Airport Hailey US
ICAO: KSUN
IATA: SUN
Category: Medium
Scheduled Services: Yes

Elevation: 5318 ft
TransAlt. 18000 ft.

Airport Communications:
ATIS:128.225
AWOS:128.225
SALT LAKE CITY CNTR:118.05
CTAF:125.6
GND:121.7
BOISE RDO:122.4
HAILEY TWR:125.6
UNICOM:122.95

KSUN Zoom In..

If you have problems with the map follow the link
https://www.worldairports.se/pages/airport.php?
ICAO=KSUN

Runways:

(A) RW 13 length 7550 ft width 100 ft
---- / hdg 129

(B) RW 31 length 7550 ft width 100 ft
---- / hdg 309

Location; KSUN
Day. 20 / Time. 20.50 Zulu
* Altimeter: 29.60
* Temperature: -07° c. -19.4°f.
* Wind from: 130° Speed 10 kn.
Dewpoint: -10° c.
Visibility: 10 Statute Miles.
Clouds: Scattered 3700 ft.
Clouds: Broken 4300 ft.
Clouds: Overcast 6500 ft.

KSUN 202050Z 13010KT 10SM SCT037 BKN043 OVC065 M07/M10 A2960


Wind From 130°
Speed 10 kn.

 
 
jpsmedia.com for Web Design worldairports.se 2019   terms of use